Time;durP1;ratioP1;P1;durP2;ratioP2;P2;SDS_P1;SDS_P2;PMS_P1;PMS_P2;Temp;Humidity;BMP_temperature;BMP_pressure;BME280_temperature;BME280_humidity;BME280_pressure;Samples;Min_cycle;Max_cycle;Signal;HPM_P1;HPM_P2
2022/12/09 00:02:05;;;;;;;29.45;17.27;;;;;;;1.73;100.00;100497.38;5050724;28;20036;-72
2022/12/09 00:04:30;;;;;;;28.75;16.35;;;;;;;1.75;100.00;100490.22;5053728;28;20033;-72
2022/12/09 00:06:56;;;;;;;28.10;17.50;;;;;;;1.77;100.00;100494.59;5053654;28;20423;-72
2022/12/09 00:09:21;;;;;;;32.47;18.75;;;;;;;1.79;100.00;100490.97;5054161;28;20116;-72
2022/12/09 00:11:46;;;;;;;32.13;18.73;;;;;;;1.82;100.00;100498.78;5036776;28;20032;-72
2022/12/09 00:14:11;;;;;;;32.95;17.33;;;;;;;1.82;100.00;100496.13;5053984;28;20118;-72
2022/12/09 00:16:38;;;;;;;30.52;18.40;;;;;;;1.84;100.00;100493.41;5036495;28;20036;-72
2022/12/09 00:19:03;;;;;;;32.78;19.73;;;;;;;1.86;100.00;100491.56;5036999;28;20403;-72
2022/12/09 00:21:31;;;;;;;33.15;18.38;;;;;;;1.87;100.00;100490.63;5054833;28;20028;-72
2022/12/09 00:23:59;;;;;;;34.47;19.48;;;;;;;1.86;100.00;100486.25;5053396;28;20120;-72
2022/12/09 00:26:26;;;;;;;31.02;18.70;;;;;;;1.87;100.00;100487.97;5053242;28;20082;-72
2022/12/09 00:28:53;;;;;;;31.77;19.45;;;;;;;1.88;100.00;100489.72;5035692;28;20136;-72
2022/12/09 00:31:24;;;;;;;32.55;19.88;;;;;;;1.87;100.00;100483.53;5051476;28;20579;-72
2022/12/09 00:33:51;;;;;;;31.70;18.30;;;;;;;1.89;100.00;100486.16;5035083;28;20396;-72
2022/12/09 00:36:19;;;;;;;31.30;19.23;;;;;;;1.91;100.00;100485.13;5052249;28;20029;-72
2022/12/09 00:38:45;;;;;;;35.97;19.80;;;;;;;1.92;100.00;100491.31;5053399;28;20029;-72
2022/12/09 00:41:12;;;;;;;32.40;19.40;;;;;;;1.96;100.00;100492.03;5035715;28;20037;-72
2022/12/09 00:43:38;;;;;;;33.70;19.98;;;;;;;1.92;100.00;100492.16;5035362;28;20040;-72
2022/12/09 00:46:04;;;;;;;35.40;19.48;;;;;;;1.94;100.00;100494.75;5052355;28;20443;-72
2022/12/09 00:48:29;;;;;;;35.90;19.52;;;;;;;1.95;100.00;100490.28;5052666;28;20033;-72
2022/12/09 00:50:55;;;;;;;34.30;20.73;;;;;;;1.98;100.00;100496.34;5043929;28;20296;-72
2022/12/09 00:53:20;;;;;;;38.00;21.10;;;;;;;1.98;100.00;100493.69;5052838;28;20032;-72
2022/12/09 00:55:45;;;;;;;36.17;20.35;;;;;;;1.97;100.00;100497.25;5035342;28;20036;-72
2022/12/09 00:58:12;;;;;;;36.38;20.48;;;;;;;1.95;100.00;100485.88;5050689;28;20106;-72
2022/12/09 01:00:38;;;;;;;31.40;20.20;;;;;;;1.95;100.00;100490.28;5052706;28;20399;-72
2022/12/09 01:03:04;;;;;;;34.42;19.83;;;;;;;1.96;100.00;100492.03;5052658;28;20439;-72
2022/12/09 01:05:29;;;;;;;33.42;20.05;;;;;;;1.99;100.00;100486.59;5033329;28;20037;-72
2022/12/09 01:07:54;;;;;;;33.03;20.48;;;;;;;2.00;100.00;100485.66;5053267;28;20056;-72
2022/12/09 01:10:20;;;;;;;35.47;21.92;;;;;;;1.99;100.00;100489.25;5050909;28;20032;-72
2022/12/09 01:12:45;;;;;;;35.88;20.92;;;;;;;1.98;100.00;100485.75;5051748;28;20045;-72
2022/12/09 01:15:10;;;;;;;33.05;19.08;;;;;;;2.00;100.00;100488.31;5052945;28;20088;-72
2022/12/09 01:17:37;;;;;;;34.83;21.30;;;;;;;2.00;100.00;100486.53;5053458;28;20129;-72
2022/12/09 01:20:04;;;;;;;39.58;22.67;;;;;;;2.00;100.00;100493.63;5051368;28;20044;-72
2022/12/09 01:22:29;;;;;;;36.58;24.05;;;;;;;2.02;100.00;100497.94;5051244;28;20055;-72
2022/12/09 01:24:54;;;;;;;38.35;23.48;;;;;;;2.02;100.00;100492.63;5050914;28;20119;-72
2022/12/09 01:27:20;;;;;;;35.17;22.17;;;;;;;2.01;100.00;100493.56;5052925;28;20029;-72
2022/12/09 01:29:45;;;;;;;39.10;22.63;;;;;;;2.00;100.00;100494.47;5031641;28;20061;-72
2022/12/09 01:32:10;;;;;;;36.00;22.80;;;;;;;2.01;100.00;100498.00;5030315;28;20162;-72
2022/12/09 01:34:35;;;;;;;36.70;23.08;;;;;;;2.00;100.00;100498.94;5032659;28;20033;-72
2022/12/09 01:37:01;;;;;;;38.45;23.45;;;;;;;2.01;100.00;100498.84;5032525;28;20033;-72
2022/12/09 01:39:26;;;;;;;36.70;23.08;;;;;;;2.02;100.00;100497.94;5033683;28;20473;-72
2022/12/09 01:41:51;;;;;;;36.47;23.58;;;;;;;2.02;100.00;100502.34;5036042;28;20034;-72
2022/12/09 01:44:23;;;;;;;41.20;23.33;;;;;;;2.02;100.00;100503.25;5034932;28;20112;-72
2022/12/09 01:46:53;;;;;;;36.75;22.90;;;;;;;2.01;100.00;100498.84;5036413;28;20044;-72
2022/12/09 01:49:41;;;;;;;35.30;22.98;;;;;;;2.03;100.00;100502.28;5036094;28;20053;-72
2022/12/09 01:52:12;;;;;;;36.17;23.75;;;;;;;2.01;100.00;100501.50;5034874;28;20040;-72
2022/12/09 01:54:40;;;;;;;39.88;23.30;;;;;;;2.03;100.00;100497.00;5037241;28;20025;-72
2022/12/09 01:57:06;;;;;;;33.63;22.30;;;;;;;2.06;100.00;100496.84;5036800;28;20531;-72
2022/12/09 01:59:32;;;;;;;37.10;23.98;;;;;;;2.06;100.00;100496.84;5038048;28;20484;-72
2022/12/09 02:02:02;;;;;;;35.25;23.42;;;;;;;2.06;100.00;100499.50;5036671;28;20113;-72
2022/12/09 02:04:31;;;;;;;36.22;23.40;;;;;;;2.07;100.00;100498.59;5035124;28;20037;-72
2022/12/09 02:07:00;;;;;;;42.77;26.77;;;;;;;2.08;100.00;100502.13;5038073;28;20083;-72
2022/12/09 02:09:26;;;;;;;36.08;22.33;;;;;;;2.08;100.00;100502.13;5037202;28;20516;-72
2022/12/09 02:12:09;;;;;;;41.40;25.48;;;;;;;2.06;100.00;100496.84;5036493;28;20025;-72
2022/12/09 02:14:38;;;;;;;37.20;24.73;;;;;;;2.05;100.00;100494.28;5035814;28;20076;-72
2022/12/09 02:17:28;;;;;;;40.40;24.43;;;;;;;2.05;100.00;100500.44;5036914;28;20022;-72
2022/12/09 02:20:28;;;;;;;40.53;24.20;;;;;;;2.08;100.00;100502.13;5034319;28;20382;-72
2022/12/09 02:23:10;;;;;;;40.45;25.02;;;;;;;2.02;100.00;100500.59;5034231;28;20064;-72
2022/12/09 02:25:45;;;;;;;41.55;24.17;;;;;;;2.03;100.00;100501.44;5034690;28;20025;-72
2022/12/09 02:29:01;;;;;;;38.70;24.25;;;;;;;2.07;100.00;100500.38;5033480;28;20504;-72
2022/12/09 02:31:26;;;;;;;43.47;25.23;;;;;;;2.04;100.00;100501.38;5012749;28;20057;-72
2022/12/09 02:34:13;;;;;;;41.65;25.00;;;;;;;2.08;100.00;100496.81;5011484;28;20401;-72
2022/12/09 02:37:12;;;;;;;44.95;24.92;;;;;;;2.09;100.00;100498.50;5014098;28;20054;-72
2022/12/09 02:39:44;;;;;;;38.57;23.43;;;;;;;2.07;100.00;100489.78;5011405;28;20401;-72
2022/12/09 02:42:15;;;;;;;40.63;24.25;;;;;;;2.04;100.00;100496.06;5014107;28;20037;-72
2022/12/09 02:44:44;;;;;;;45.95;25.50;;;;;;;2.01;100.00;100498.00;5013868;28;20486;-72
2022/12/09 02:47:14;;;;;;;40.75;24.90;;;;;;;2.00;100.00;100489.16;4997635;28;20041;-72
2022/12/09 02:49:40;;;;;;;42.30;25.90;;;;;;;1.98;100.00;100491.03;4995047;28;20390;-72
2022/12/09 02:52:06;;;;;;;47.38;26.23;;;;;;;1.99;100.00;100486.59;5006082;28;20436;-72
2022/12/09 02:54:35;;;;;;;41.47;25.92;;;;;;;1.97;100.00;100489.31;5013499;28;20052;-72
2022/12/09 02:57:07;;;;;;;42.35;27.50;;;;;;;1.97;100.00;100480.50;4995473;28;20025;-72
2022/12/09 02:59:32;;;;;;;44.05;25.60;;;;;;;1.98;100.00;100487.53;4994216;28;20029;-72
2022/12/09 03:02:10;;;;;;;41.55;26.60;;;;;;;2.02;100.00;100486.44;5013482;28;20041;-72
2022/12/09 03:04:37;;;;;;;48.58;27.85;;;;;;;1.98;100.00;100491.03;5013164;28;20038;-72
2022/12/09 03:07:45;;;;;;;45.05;26.70;;;;;;;2.01;100.00;100485.59;4997822;28;20033;-72
2022/12/09 03:10:42;;;;;;;43.53;28.05;;;;;;;2.02;100.00;100482.03;5023179;28;20044;-72
2022/12/09 03:13:17;;;;;;;53.75;26.30;;;;;;;1.97;100.00;100481.34;4992522;28;20039;-72
2022/12/09 03:15:49;;;;;;;51.55;29.90;;;;;;;1.98;100.00;100480.44;4993568;28;20046;-72
2022/12/09 03:18:18;;;;;;;47.72;28.73;;;;;;;1.98;100.00;100480.44;4977447;28;20034;-72
2022/12/09 03:20:45;;;;;;;67.35;31.08;;;;;;;1.98;100.00;100480.44;4992948;28;20173;-72
2022/12/09 03:23:14;;;;;;;48.67;30.45;;;;;;;1.98;100.00;100469.00;4994259;28;20038;-72
2022/12/09 03:25:45;;;;;;;48.83;30.53;;;;;;;1.98;100.00;100469.00;4993749;28;20026;-72
2022/12/09 03:28:20;;;;;;;54.22;30.58;;;;;;;2.00;100.00;100462.66;4984265;28;20332;-72
2022/12/09 03:30:46;;;;;;;52.17;30.85;;;;;;;2.01;100.00;100463.56;4993904;28;20210;-72
2022/12/09 03:33:14;;;;;;;45.53;31.02;;;;;;;1.99;100.00;100460.97;5012213;28;20448;-72
2022/12/09 03:35:49;;;;;;;56.35;31.98;;;;;;;2.01;100.00;100463.56;5012183;28;20422;-72
2022/12/09 03:38:17;;;;;;;57.83;33.47;;;;;;;2.00;100.00;100457.38;5008129;28;20644;-72
2022/12/09 03:40:46;;;;;;;60.65;30.50;;;;;;;2.00;100.00;100457.38;4996691;28;20080;-72
2022/12/09 03:43:14;;;;;;;53.25;31.30;;;;;;;2.00;100.00;100457.38;4988306;28;20030;-72
2022/12/09 03:45:41;;;;;;;68.57;31.15;;;;;;;2.01;100.00;100458.25;4997936;28;20045;-72
2022/12/09 03:48:07;;;;;;;72.10;30.48;;;;;;;2.01;100.00;100459.09;5016881;28;20041;-72
2022/12/09 03:50:46;;;;;;;56.50;30.88;;;;;;;2.02;100.00;100452.88;5033104;28;20493;-72
2022/12/09 03:53:16;;;;;;;54.38;31.63;;;;;;;2.01;100.00;100459.09;5033141;28;20063;-72
2022/12/09 03:55:50;;;;;;;68.60;29.83;;;;;;;2.04;100.00;100464.25;5034888;28;20117;-72
2022/12/09 03:58:16;;;;;;;46.55;29.60;;;;;;;2.05;100.00;100465.09;5033732;28;20060;-72
2022/12/09 04:00:42;;;;;;;61.42;31.05;;;;;;;2.07;100.00;100466.78;5030633;28;20025;-72
2022/12/09 04:03:07;;;;;;;61.63;34.20;;;;;;;2.08;100.00;100463.19;5033760;28;20556;-72
2022/12/09 04:05:33;;;;;;;58.50;31.63;;;;;;;2.06;100.00;100457.09;5033314;28;20028;-72
2022/12/09 04:07:58;;;;;;;54.65;30.10;;;;;;;2.07;100.00;100455.31;5032529;28;20049;-72
2022/12/09 04:10:23;;;;;;;50.70;31.50;;;;;;;2.05;100.00;100460.69;5031055;28;20108;-72
2022/12/09 04:12:49;;;;;;;49.53;31.45;;;;;;;2.07;100.00;100452.66;5034303;28;20032;-72
2022/12/09 04:15:14;;;;;;;52.65;30.73;;;;;;;2.08;100.00;100449.94;5031735;28;20033;-72
2022/12/09 04:17:39;;;;;;;52.30;29.90;;;;;;;2.12;100.00;100444.50;5033612;28;20025;-72
2022/12/09 04:20:05;;;;;;;49.17;30.55;;;;;;;2.13;100.00;100448.88;5031674;28;20179;-72
2022/12/09 04:22:31;;;;;;;57.03;27.92;;;;;;;2.15;100.00;100444.38;5029558;28;20493;-72
2022/12/09 04:24:56;;;;;;;47.85;29.65;;;;;;;2.15;100.00;100450.50;5022553;28;20099;-72
2022/12/09 04:27:21;;;;;;;50.08;30.17;;;;;;;2.16;100.00;100462.84;5033776;28;20025;-72
2022/12/09 04:29:47;;;;;;;54.97;29.92;;;;;;;2.18;100.00;100449.53;5049600;28;20107;-72
2022/12/09 04:32:12;;;;;;;48.25;29.35;;;;;;;2.18;100.00;100449.53;5053230;28;20099;-72
2022/12/09 04:34:37;;;;;;;48.28;28.08;;;;;;;2.19;100.00;100440.66;5034862;28;20029;-72
2022/12/09 04:37:02;;;;;;;48.05;27.13;;;;;;;2.17;100.00;100440.72;5053537;28;20028;-72
2022/12/09 04:39:28;;;;;;;47.85;27.75;;;;;;;2.18;100.00;100441.56;5053877;28;20059;-72
2022/12/09 04:41:54;;;;;;;54.80;27.90;;;;;;;2.17;100.00;100437.22;5051152;28;20029;-72
2022/12/09 04:44:19;;;;;;;47.50;29.90;;;;;;;2.18;100.00;100447.75;5052617;28;20025;-72
2022/12/09 04:46:44;;;;;;;43.88;27.27;;;;;;;2.16;100.00;100444.28;5051851;28;20172;-72
2022/12/09 04:49:09;;;;;;;47.08;28.35;;;;;;;2.15;100.00;100439.06;5052891;28;20059;-72
2022/12/09 04:51:35;;;;;;;44.30;27.70;;;;;;;2.17;100.00;100438.06;5052578;28;20028;-72
2022/12/09 04:54:00;;;;;;;46.88;30.20;;;;;;;2.19;100.00;100448.59;5053400;28;20394;-72
2022/12/09 04:56:25;;;;;;;47.20;28.75;;;;;;;2.20;100.00;100442.38;5053946;28;20508;-72
2022/12/09 04:58:51;;;;;;;40.33;26.92;;;;;;;2.20;100.00;100443.22;5035845;28;20021;-72
2022/12/09 05:01:19;;;;;;;46.70;28.45;;;;;;;2.21;100.00;100438.78;5052263;28;20040;-72
2022/12/09 05:03:52;;;;;;;47.70;28.40;;;;;;;2.21;100.00;100438.78;5047312;28;20124;-72
2022/12/09 05:06:19;;;;;;;48.88;28.77;;;;;;;2.20;100.00;100447.69;5050712;28;20033;-72
2022/12/09 05:08:45;;;;;;;49.10;29.10;;;;;;;2.20;100.00;100448.53;5039618;28;20029;-72
2022/12/09 05:11:10;;;;;;;44.70;28.77;;;;;;;2.20;100.00;100448.53;5033972;28;20031;-72
2022/12/09 05:13:35;;;;;;;43.85;31.33;;;;;;;2.20;100.00;100445.88;5055403;28;20048;-72
2022/12/09 05:16:07;;;;;;;41.85;28.00;;;;;;;2.19;100.00;100448.59;5056843;28;20454;-72
2022/12/09 05:18:33;;;;;;;49.97;28.95;;;;;;;2.19;100.00;100445.97;5039413;28;20083;-72
2022/12/09 05:21:02;;;;;;;42.50;28.52;;;;;;;2.19;100.00;100446.81;5050999;28;20021;-72
2022/12/09 05:23:28;;;;;;;49.78;29.23;;;;;;;2.19;100.00;100440.66;5049865;28;20071;-72
2022/12/09 05:25:54;;;;;;;46.00;28.20;;;;;;;2.19;100.00;100444.16;5038880;28;20492;-72
2022/12/09 05:28:19;;;;;;;52.63;29.08;;;;;;;2.18;100.00;100439.81;5056777;28;20519;-72
2022/12/09 05:30:44;;;;;;;48.15;31.17;;;;;;;2.18;100.00;100444.22;5055345;28;20044;-72
2022/12/09 05:33:10;;;;;;;53.80;29.83;;;;;;;2.18;100.00;100447.75;5057282;28;20013;-72
2022/12/09 05:35:35;;;;;;;47.47;31.58;;;;;;;2.19;100.00;100448.59;5039113;28;20068;-72
2022/12/09 05:38:00;;;;;;;46.08;29.90;;;;;;;2.18;100.00;100447.75;5036493;28;20025;-72
2022/12/09 05:40:26;;;;;;;48.13;27.95;;;;;;;2.20;100.00;100447.69;5039239;28;20083;-72
2022/12/09 05:42:51;;;;;;;44.38;30.50;;;;;;;2.18;100.00;100444.22;5038238;28;20039;-72
2022/12/09 05:45:16;;;;;;;56.95;31.83;;;;;;;2.18;100.00;100446.88;5044808;28;20037;-72
2022/12/09 05:47:41;;;;;;;47.80;32.15;;;;;;;2.20;100.00;100445.88;5042716;28;20029;-72
2022/12/09 05:50:07;;;;;;;50.08;29.08;;;;;;;2.20;100.00;100447.69;5038496;28;20032;-72
2022/12/09 05:52:34;;;;;;;49.28;28.92;;;;;;;2.19;100.00;100451.25;5035322;28;20032;-72
2022/12/09 05:55:03;;;;;;;51.13;31.98;;;;;;;2.18;100.00;100442.47;5036510;28;20056;-72
2022/12/09 05:57:28;;;;;;;54.50;31.10;;;;;;;2.17;100.00;100437.22;5055300;28;20071;-72
2022/12/09 05:59:53;;;;;;;50.90;32.03;;;;;;;2.15;100.00;100436.41;5035194;28;20068;-72
2022/12/09 06:02:18;;;;;;;45.28;30.35;;;;;;;2.15;100.00;100439.06;5039076;28;20029;-72
2022/12/09 06:04:44;;;;;;;48.10;28.85;;;;;;;2.13;100.00;100440.94;5055837;28;20121;-72
2022/12/09 06:07:09;;;;;;;50.63;29.55;;;;;;;2.10;100.00;100437.47;5056702;28;20033;-72
2022/12/09 06:09:34;;;;;;;47.00;29.75;;;;;;;2.08;100.00;100439.34;5054816;28;20170;-72
2022/12/09 06:11:59;;;;;;;46.17;29.55;;;;;;;2.07;100.00;100439.41;5052526;28;20025;-72
2022/12/09 06:14:25;;;;;;;42.42;26.67;;;;;;;2.07;100.00;100431.47;5035252;28;20092;-72
2022/12/09 06:16:50;;;;;;;41.42;25.55;;;;;;;2.07;100.00;100437.63;5033529;28;20048;-72
2022/12/09 06:19:15;;;;;;;44.42;28.88;;;;;;;2.08;100.00;100435.84;5055263;28;20159;-72
2022/12/09 06:21:41;;;;;;;46.45;28.27;;;;;;;2.11;100.00;100433.06;5055199;28;20036;-72
2022/12/09 06:24:07;;;;;;;46.05;30.27;;;;;;;2.14;100.00;100437.34;5055009;28;20504;-72
2022/12/09 06:26:32;;;;;;;44.22;28.25;;;;;;;2.12;100.00;100434.75;5055317;28;20046;-72
2022/12/09 06:28:58;;;;;;;49.30;29.77;;;;;;;2.13;100.00;100447.09;5053644;28;20049;-72
2022/12/09 06:31:24;;;;;;;51.00;30.10;;;;;;;2.10;100.00;100437.47;5032356;28;20025;-72
2022/12/09 06:33:50;;;;;;;44.90;28.33;;;;;;;2.09;100.00;100440.19;5049041;28;20115;-72
2022/12/09 06:36:16;;;;;;;50.40;30.90;;;;;;;2.12;100.00;100439.19;5033723;28;20099;-72
2022/12/09 06:38:41;;;;;;;44.90;27.27;;;;;;;2.14;100.00;100438.22;5033177;28;20460;-72
2022/12/09 06:41:11;;;;;;;41.65;27.98;;;;;;;2.16;100.00;100446.94;5054697;28;20515;-72
2022/12/09 06:43:37;;;;;;;43.67;27.75;;;;;;;2.16;100.00;100439.00;5034903;28;20043;-72
2022/12/09 06:46:09;;;;;;;42.47;27.80;;;;;;;2.18;100.00;100437.16;5053644;28;20036;-72
2022/12/09 06:48:34;;;;;;;48.28;28.00;;;;;;;2.18;100.00;100430.97;5054381;28;20538;-72
2022/12/09 06:51:00;;;;;;;44.42;28.83;;;;;;;2.15;100.00;100431.13;5054507;28;20029;-72
2022/12/09 06:53:25;;;;;;;43.63;28.33;;;;;;;2.14;100.00;100435.56;5055267;28;20123;-72
2022/12/09 06:55:50;;;;;;;45.42;28.45;;;;;;;2.14;100.00;100438.22;5054608;28;20033;-72
2022/12/09 06:58:16;;;;;;;43.97;27.75;;;;;;;2.15;100.00;100437.25;5054465;28;20040;-72
2022/12/09 07:00:41;;;;;;;44.15;28.40;;;;;;;2.14;100.00;100434.69;5046627;28;20036;-72
2022/12/09 07:03:06;;;;;;;46.28;29.42;;;;;;;2.13;100.00;100436.47;5037276;28;20123;-72
2022/12/09 07:05:31;;;;;;;45.28;28.33;;;;;;;2.15;100.00;100444.38;5055932;28;20033;-72
2022/12/09 07:07:57;;;;;;;48.22;27.63;;;;;;;2.14;100.00;100439.97;5040575;28;20038;-72
2022/12/09 07:10:22;;;;;;;41.85;27.25;;;;;;;2.15;100.00;100436.41;5050334;28;20502;-72
2022/12/09 07:12:47;;;;;;;42.83;28.00;;;;;;;2.14;100.00;100448.81;5054134;28;20116;-72
2022/12/09 07:15:13;;;;;;;45.40;29.80;;;;;;;2.12;100.00;100449.81;5055274;28;20043;-72
2022/12/09 07:17:38;;;;;;;42.78;27.40;;;;;;;2.08;100.00;100454.41;5051920;28;20051;-72
2022/12/09 07:20:05;;;;;;;45.63;28.65;;;;;;;2.10;100.00;100453.38;5054268;28;20504;-72
2022/12/09 07:22:32;;;;;;;44.33;28.42;;;;;;;2.13;100.00;100454.19;5053978;28;20078;-72
2022/12/09 07:24:57;;;;;;;49.03;30.17;;;;;;;2.12;100.00;100463.06;5054663;28;20044;-72
2022/12/09 07:27:22;;;;;;;42.83;28.20;;;;;;;2.09;100.00;100464.06;5035074;28;20474;-72
2022/12/09 07:29:47;;;;;;;43.38;27.92;;;;;;;2.07;100.00;100460.63;5052745;28;20088;-72
2022/12/09 07:32:13;;;;;;;45.80;27.73;;;;;;;2.06;100.00;100459.75;5052367;28;20052;-72
2022/12/09 07:34:38;;;;;;;45.92;28.15;;;;;;;2.09;100.00;100461.41;5036127;28;20460;-69
2022/12/09 07:37:03;;;;;;;45.45;27.98;;;;;;;2.11;100.00;100459.56;5061809;28;20399;-72
2022/12/09 07:39:29;;;;;;;51.45;29.98;;;;;;;2.10;100.00;100469.28;5048705;28;20047;-72
2022/12/09 07:41:56;;;;;;;40.53;27.15;;;;;;;2.10;100.00;100468.44;5065713;28;20087;-72
2022/12/09 07:44:22;;;;;;;42.17;27.35;;;;;;;2.08;100.00;100468.50;5066557;28;20021;-73
2022/12/09 07:46:48;;;;;;;45.70;28.73;;;;;;;2.08;100.00;100465.84;5066975;28;20048;-72
2022/12/09 07:49:14;;;;;;;47.08;30.08;;;;;;;2.12;100.00;100473.66;5068866;28;20058;-73
2022/12/09 07:51:40;;;;;;;45.08;28.20;;;;;;;2.13;100.00;100483.34;5067115;28;20020;-73
2022/12/09 07:54:05;;;;;;;46.67;29.27;;;;;;;2.12;100.00;100478.97;5067574;28;20040;-72
2022/12/09 07:56:30;;;;;;;43.50;28.33;;;;;;;2.12;100.00;100482.47;5071900;28;20037;-73
2022/12/09 07:58:56;;;;;;;46.88;29.88;;;;;;;2.14;100.00;100490.34;5071134;28;20080;-73
2022/12/09 08:01:24;;;;;;;46.80;29.00;;;;;;;2.11;100.00;100480.78;5071293;28;20028;-73
2022/12/09 08:03:50;;;;;;;43.58;29.27;;;;;;;2.13;100.00;100483.34;5071581;28;20036;-73
2022/12/09 08:06:18;;;;;;;45.95;31.00;;;;;;;2.13;100.00;100478.91;5062896;28;20579;-73
2022/12/09 08:08:44;;;;;;;42.58;28.45;;;;;;;2.12;100.00;100481.63;5063476;28;20107;-71
2022/12/09 08:11:12;;;;;;;41.67;28.13;;;;;;;2.09;100.00;100479.97;5051148;28;20025;-72
2022/12/09 08:13:38;;;;;;;43.70;29.50;;;;;;;2.07;100.00;100479.19;5068347;28;20024;-72
2022/12/09 08:16:05;;;;;;;45.88;28.42;;;;;;;2.09;100.00;100483.50;5050074;28;20480;-72
2022/12/09 08:18:32;;;;;;;43.45;27.48;;;;;;;2.13;100.00;100478.06;5034329;28;20439;-72
2022/12/09 08:20:57;;;;;;;46.13;29.45;;;;;;;2.14;100.00;100475.34;5030804;28;20041;-72
2022/12/09 08:23:22;;;;;;;42.92;29.40;;;;;;;2.15;100.00;100473.53;5044717;28;20024;-72
2022/12/09 08:25:53;;;;;;;43.67;29.65;;;;;;;2.15;100.00;100486.78;5031800;28;20039;-72
2022/12/09 08:28:18;;;;;;;46.08;26.50;;;;;;;2.14;100.00;100477.97;5055299;28;20052;-71
2022/12/09 08:30:43;;;;;;;43.40;27.65;;;;;;;2.14;100.00;100479.75;5070601;28;20037;-71
2022/12/09 08:33:08;;;;;;;43.00;27.23;;;;;;;2.17;100.00;100483.16;5073795;28;20037;-71
2022/12/09 08:35:36;;;;;;;44.85;26.58;;;;;;;2.17;100.00;100483.16;5067447;28;20063;-72
2022/12/09 08:38:01;;;;;;;43.47;26.92;;;;;;;2.19;100.00;100481.28;5061817;28;20089;-72
2022/12/09 08:40:26;;;;;;;43.70;25.35;;;;;;;2.19;100.00;100478.63;5066526;28;20063;-72
2022/12/09 08:42:52;;;;;;;42.30;26.33;;;;;;;2.20;100.00;100474.19;5070563;28;20025;-72
2022/12/09 08:45:17;;;;;;;43.67;27.92;;;;;;;2.24;100.00;100481.06;5069713;28;20063;-72
2022/12/09 08:47:42;;;;;;;42.88;28.48;;;;;;;2.22;100.00;100477.63;5050361;28;20056;-72
2022/12/09 08:50:08;;;;;;;43.33;26.73;;;;;;;2.23;100.00;100474.06;5070310;28;20028;-72
2022/12/09 08:52:33;;;;;;;43.67;27.95;;;;;;;2.23;100.00;100476.72;5070791;28;20114;-72
2022/12/09 08:54:58;;;;;;;45.75;28.70;;;;;;;2.24;100.00;100475.75;5052460;28;20040;-72
2022/12/09 08:57:24;;;;;;;40.88;27.90;;;;;;;2.23;100.00;100474.06;5069665;28;20056;-72
2022/12/09 08:59:49;;;;;;;51.72;26.60;;;;;;;2.23;100.00;100466.97;5036670;28;20096;-72
2022/12/09 09:02:14;;;;;;;46.90;28.48;;;;;;;2.23;100.00;100469.59;5053252;28;20055;-72
2022/12/09 09:04:40;;;;;;;42.25;27.27;;;;;;;2.26;100.00;100471.25;5066610;28;20024;-72
2022/12/09 09:07:05;;;;;;;45.90;27.67;;;;;;;2.24;100.00;100475.75;5069977;28;20033;-72
2022/12/09 09:09:30;;;;;;;44.38;28.58;;;;;;;2.25;100.00;100482.78;5067317;28;20024;-72
2022/12/09 09:11:56;;;;;;;40.53;27.65;;;;;;;2.21;100.00;100479.44;5070773;28;20500;-72
2022/12/09 09:14:21;;;;;;;47.67;28.48;;;;;;;2.21;100.00;100484.75;5071344;28;20048;-72
2022/12/09 09:16:46;;;;;;;45.88;28.40;;;;;;;2.20;100.00;100490.09;5070684;28;20041;-72
2022/12/09 09:19:18;;;;;;;40.15;26.20;;;;;;;2.20;100.00;100498.91;5072354;28;20032;-72
2022/12/09 09:21:43;;;;;;;45.83;27.17;;;;;;;2.19;100.00;100494.53;5073624;28;20043;-72
2022/12/09 09:24:15;;;;;;;50.28;28.60;;;;;;;2.20;100.00;100500.72;5073230;28;20013;-72
2022/12/09 09:26:41;;;;;;;46.55;27.20;;;;;;;2.20;100.00;100503.38;5071907;28;20029;-72
2022/12/09 09:29:09;;;;;;;45.90;28.13;;;;;;;2.19;100.00;100498.97;5072044;28;20112;-72
2022/12/09 09:31:34;;;;;;;41.22;28.52;;;;;;;2.19;100.00;100499.84;5070529;28;20044;-72
2022/12/09 09:34:00;;;;;;;45.47;27.95;;;;;;;2.21;100.00;100502.41;5070342;28;20024;-72
2022/12/09 09:36:25;;;;;;;49.03;30.30;;;;;;;2.21;100.00;100497.09;5068907;28;20063;-72
2022/12/09 09:38:52;;;;;;;43.47;27.48;;;;;;;2.24;100.00;100496.97;5069416;28;20606;-72
2022/12/09 09:41:30;;;;;;;46.72;29.60;;;;;;;2.26;100.00;100497.78;5069666;28;20025;-72
2022/12/09 09:43:55;;;;;;;40.17;27.08;;;;;;;2.27;100.00;100502.16;5066317;28;20488;-73
2022/12/09 09:46:51;;;;;;;45.80;29.50;;;;;;;2.35;100.00;100496.50;5065491;28;20037;-72
2022/12/09 09:49:44;;;;;;;42.75;28.65;;;;;;;2.40;100.00;100487.44;5038192;28;20039;-73
2022/12/09 09:52:15;;;;;;;46.03;28.25;;;;;;;2.40;100.00;100492.72;5058861;28;20052;-72
2022/12/09 09:54:40;;;;;;;51.45;26.05;;;;;;;2.39;100.00;100485.69;5065462;28;20029;-72
2022/12/09 09:57:15;;;;;;;45.50;25.67;;;;;;;2.43;100.00;100489.94;5066592;28;20025;-72
2022/12/09 10:00:02;;;;;;;43.25;27.33;;;;;;;2.49;100.00;100487.91;5062689;28;20036;-73
2022/12/09 10:02:46;;;;;;;43.05;26.17;;;;;;;2.54;100.00;100480.63;5050603;28;20036;-73
2022/12/09 10:05:41;;;;;;;36.70;21.63;;;;;;;2.61;97.98;100480.25;5065575;28;20416;-72
2022/12/09 10:08:35;;;;;;;34.67;20.73;;;;;;;2.64;97.60;100479.28;5055959;28;20029;-72
2022/12/09 10:11:23;;;;;;;33.08;19.42;;;;;;;2.60;97.42;100480.34;5071376;28;20032;-72
2022/12/09 10:14:07;;;;;;;32.88;17.50;;;;;;;2.55;95.57;100488.50;5070809;28;20032;-73
2022/12/09 10:16:41;;;;;;;32.08;18.73;;;;;;;2.52;95.74;100482.47;5063032;28;20024;-73
2022/12/09 10:19:34;;;;;;;37.15;17.83;;;;;;;2.53;96.37;100484.19;5061251;28;20159;-73
2022/12/09 10:22:11;;;;;;;30.83;15.73;;;;;;;2.52;94.71;100485.13;5055844;28;20036;-72
2022/12/09 10:24:38;;;;;;;32.28;16.38;;;;;;;2.52;93.26;100490.44;5057031;28;20054;-72
2022/12/09 10:27:35;;;;;;;32.90;16.17;;;;;;;2.55;93.26;100482.34;5041266;28;20050;-72
2022/12/09 10:30:11;;;;;;;30.33;15.85;;;;;;;2.56;92.81;100484.06;5057329;28;20404;-72
2022/12/09 10:32:39;;;;;;;31.83;16.65;;;;;;;2.58;93.46;100484.88;5056123;28;20029;-71
2022/12/09 10:35:17;;;;;;;35.08;18.27;;;;;;;2.63;93.27;100477.53;5058989;28;20037;-71
2022/12/09 10:37:42;;;;;;;29.83;15.93;;;;;;;2.66;94.00;100481.84;5040434;28;20029;-71
2022/12/09 10:40:10;;;;;;;35.75;18.42;;;;;;;2.70;94.29;100475.47;5057142;28;20118;-71
2022/12/09 10:46:01;;;;;;;31.30;17.15;;;;;;;2.80;95.02;100480.28;5056744;28;20160;-71
2022/12/09 10:48:45;;;;;;;32.47;18.80;;;;;;;2.84;94.53;100481.00;5057092;28;20031;-71
2022/12/09 10:51:24;;;;;;;38.08;18.65;;;;;;;2.84;93.83;100483.66;5057397;28;20403;-71
2022/12/09 10:53:54;;;;;;;33.05;17.40;;;;;;;2.87;92.47;100485.28;5060094;28;20037;-71
2022/12/09 10:56:29;;;;;;;29.45;15.45;;;;;;;2.91;92.52;100481.56;5059633;28;20036;-73
2022/12/09 10:59:17;;;;;;;37.22;17.67;;;;;;;2.95;92.22;100477.81;5056078;28;20496;-74
2022/12/09 11:02:08;;;;;;;30.35;16.08;;;;;;;2.93;91.92;100469.94;5060766;28;20033;-72
2022/12/09 11:04:40;;;;;;;30.65;15.95;;;;;;;2.88;90.74;100476.41;5047213;28;20041;-73
2022/12/09 11:07:05;;;;;;;31.77;15.75;;;;;;;2.86;90.83;100475.63;5053762;28;20380;-71
2022/12/09 11:09:33;;;;;;;30.55;17.38;;;;;;;2.84;92.13;100474.81;5036195;28;20025;-70
2022/12/09 11:12:00;;;;;;;30.67;16.88;;;;;;;2.83;92.65;100478.41;5058573;28;20028;-71
2022/12/09 11:14:39;;;;;;;31.77;15.60;;;;;;;2.85;91.52;100479.19;5056835;28;20037;-72
2022/12/09 11:17:18;;;;;;;32.47;15.93;;;;;;;2.87;92.23;100477.31;5062764;28;20036;-73
2022/12/09 11:19:51;;;;;;;32.47;17.77;;;;;;;2.85;89.97;100481.84;5036973;28;20075;-71
2022/12/09 11:22:19;;;;;;;32.67;18.40;;;;;;;2.84;90.94;100478.34;5059022;28;20029;-70